createdAt,value
2022-11-25T00:01:14.435Z,82.47
2022-11-25T00:03:48.929Z,70.70
2022-11-25T00:06:21.703Z,71.95
2022-11-25T00:08:56.957Z,73.65
2022-11-25T00:11:30.866Z,73.72
2022-11-25T00:13:58.403Z,71.95
2022-11-25T00:16:34.963Z,84.05
2022-11-25T00:19:01.680Z,74.25
2022-11-25T00:21:37.923Z,82.00
2022-11-25T00:24:06.916Z,75.00
2022-11-25T00:26:35.881Z,75.68
2022-11-25T00:29:11.932Z,72.00
2022-11-25T00:31:40.403Z,77.82
2022-11-25T00:34:07.555Z,73.22
2022-11-25T00:36:43.922Z,73.13
2022-11-25T00:39:13.540Z,83.07
2022-11-25T00:42:05.936Z,87.93
2022-11-25T00:44:35.910Z,78.93
2022-11-25T00:47:21.881Z,70.78
2022-11-25T00:49:53.812Z,74.22
2022-11-25T00:52:29.966Z,72.97
2022-11-25T00:54:56.595Z,78.65
2022-11-25T00:57:23.739Z,73.68
2022-11-25T00:59:56.975Z,70.55
2022-11-25T01:02:29.885Z,70.80
2022-11-25T01:04:56.522Z,70.57
2022-11-25T01:07:29.991Z,71.05
2022-11-25T01:10:03.927Z,71.28
2022-11-25T01:12:30.535Z,76.30
2022-11-25T01:14:57.150Z,82.45
2022-11-25T01:17:29.908Z,70.07
2022-11-25T01:19:56.591Z,63.60
2022-11-25T01:22:23.172Z,76.85
2022-11-25T01:24:55.931Z,67.97
2022-11-25T01:27:28.920Z,77.97
2022-11-25T01:29:55.502Z,72.90
2022-11-25T01:32:22.142Z,68.20
2022-11-25T01:34:54.893Z,62.47
2022-11-25T01:37:27.924Z,71.72
2022-11-25T01:39:54.526Z,63.17
2022-11-25T01:42:27.925Z,75.32
2022-11-25T01:45:24.627Z,67.95
2022-11-25T01:48:13.913Z,66.30
2022-11-25T01:50:42.198Z,63.05
2022-11-25T01:53:16.941Z,61.00
2022-11-25T01:55:48.771Z,67.05
2022-11-25T01:58:27.923Z,68.75
2022-11-25T02:01:00.953Z,62.10
2022-11-25T02:03:35.361Z,67.68
2022-11-25T02:06:28.940Z,63.13
2022-11-25T02:09:05.535Z,66.80
2022-11-25T02:11:41.956Z,79.28
2022-11-25T02:14:09.508Z,83.30
2022-11-25T02:16:43.025Z,111.22
2022-11-25T02:19:28.865Z,72.70
2022-11-25T02:22:02.338Z,76.95
2022-11-25T02:24:51.932Z,108.18
2022-11-25T02:27:19.386Z,100.55
2022-11-25T02:29:46.597Z,95.20
2022-11-25T02:32:19.900Z,86.35
2022-11-25T02:34:47.867Z,81.65
2022-11-25T02:37:23.948Z,130.25
2022-11-25T02:39:59.960Z,120.75
2022-11-25T02:42:29.808Z,132.27
2022-11-25T02:44:56.789Z,90.63
2022-11-25T02:47:29.979Z,90.13
2022-11-25T02:49:56.580Z,123.30
2022-11-25T02:52:29.925Z,95.40
2022-11-25T02:55:02.900Z,87.88
2022-11-25T02:57:29.485Z,84.93
2022-11-25T02:59:56.095Z,114.22
2022-11-25T03:02:29.952Z,86.68
2022-11-25T03:05:02.966Z,103.13
2022-11-25T03:07:29.907Z,81.85
2022-11-25T03:10:03.868Z,64.93
2022-11-25T03:12:30.540Z,78.35
2022-11-25T03:15:03.888Z,77.78
2022-11-25T03:17:30.523Z,70.60
2022-11-25T03:20:03.908Z,88.75
2022-11-25T03:22:30.479Z,68.00
2022-11-25T03:25:03.903Z,69.30
2022-11-25T03:27:30.596Z,68.50
2022-11-25T03:29:57.198Z,63.08
2022-11-25T03:32:29.916Z,63.38
2022-11-25T03:34:56.503Z,67.75
2022-11-25T03:37:29.275Z,65.55
2022-11-25T03:40:02.896Z,69.13
2022-11-25T03:42:29.509Z,73.05
2022-11-25T03:44:56.116Z,80.10
2022-11-25T03:47:28.977Z,79.68
2022-11-25T03:50:01.883Z,77.75
2022-11-25T03:52:34.914Z,63.22
2022-11-25T03:55:07.866Z,76.05
2022-11-25T03:57:41.919Z,83.32
2022-11-25T04:00:09.441Z,92.82
2022-11-25T04:02:49.080Z,70.53
2022-11-25T04:05:15.785Z,69.75
2022-11-25T04:07:42.478Z,78.05
2022-11-25T04:10:15.847Z,81.40
2022-11-25T04:12:54.912Z,73.90
2022-11-25T04:15:27.886Z,74.72
2022-11-25T04:18:00.852Z,89.35
2022-11-25T04:20:27.528Z,79.43
2022-11-25T04:23:00.895Z,78.35
2022-11-25T04:25:27.466Z,89.72
2022-11-25T04:27:54.056Z,70.13
2022-11-25T04:30:26.950Z,63.47
2022-11-25T04:35:40.375Z,61.92
2022-11-25T04:38:13.938Z,67.43
2022-11-25T04:40:40.512Z,56.53
2022-11-25T04:43:10.495Z,64.32
2022-11-25T04:46:12.467Z,59.08
2022-11-25T04:48:36.896Z,50.72
2022-11-25T04:51:16.887Z,59.83
2022-11-25T04:53:44.096Z,52.00
2022-11-25T04:56:23.880Z,58.25
2022-11-25T04:59:15.847Z,66.80
2022-11-25T05:01:42.534Z,55.78
2022-11-25T05:04:21.838Z,57.08
2022-11-25T05:06:51.521Z,52.90
2022-11-25T05:09:24.920Z,58.45
2022-11-25T05:11:57.971Z,51.25
2022-11-25T05:14:25.363Z,55.90
2022-11-25T05:16:52.881Z,50.40
2022-11-25T05:19:25.883Z,47.53
2022-11-25T05:21:52.463Z,51.70
2022-11-25T05:24:25.927Z,54.70
2022-11-25T05:26:52.530Z,49.83
2022-11-25T05:29:19.258Z,50.67
2022-11-25T05:31:52.829Z,55.83
2022-11-25T05:34:25.922Z,62.78
2022-11-25T05:36:52.512Z,48.38
2022-11-25T05:39:19.265Z,56.95
2022-11-25T05:41:52.944Z,53.95
2022-11-25T05:44:22.901Z,50.22
2022-11-25T05:47:03.854Z,49.63
2022-11-25T05:49:37.247Z,52.72
2022-11-25T05:52:10.936Z,52.22
2022-11-25T05:54:37.646Z,54.90
2022-11-25T05:57:10.914Z,58.70
2022-11-25T05:59:37.496Z,51.60
2022-11-25T06:02:04.136Z,50.08
2022-11-25T06:04:43.900Z,53.72
2022-11-25T06:07:10.509Z,56.75
2022-11-25T06:09:37.186Z,49.72
2022-11-25T06:12:10.902Z,54.05
2022-11-25T06:14:43.900Z,51.53
2022-11-25T06:17:10.479Z,55.67
2022-11-25T06:19:43.928Z,53.50
2022-11-25T06:22:10.511Z,52.45
2022-11-25T06:24:37.206Z,50.17
2022-11-25T06:27:10.852Z,47.80
2022-11-25T06:29:37.608Z,43.95
2022-11-25T06:32:10.844Z,44.47
2022-11-25T06:34:41.894Z,47.25
2022-11-25T06:37:15.823Z,39.55
2022-11-25T06:39:42.444Z,43.00
2022-11-25T06:42:15.825Z,44.28
2022-11-25T06:44:48.852Z,45.28
2022-11-25T06:47:28.861Z,42.28
2022-11-25T06:50:01.842Z,48.33
2022-11-25T06:52:37.960Z,50.13
2022-11-25T06:55:11.945Z,48.63
2022-11-25T06:57:38.560Z,44.35
2022-11-25T07:00:05.915Z,42.35
2022-11-25T07:02:44.090Z,43.55
2022-11-25T07:05:20.298Z,39.20
2022-11-25T07:07:53.981Z,39.25
2022-11-25T07:10:26.941Z,39.22
2022-11-25T07:12:53.530Z,44.47
2022-11-25T07:15:26.924Z,40.03
2022-11-25T07:17:53.506Z,41.08
2022-11-25T07:20:33.823Z,39.03
2022-11-25T07:25:33.659Z,38.42
2022-11-25T07:28:06.835Z,36.08
2022-11-25T07:33:26.978Z,35.65
2022-11-25T07:36:00.928Z,43.08
2022-11-25T07:38:27.976Z,43.92
2022-11-25T07:40:54.568Z,41.22
2022-11-25T07:43:27.855Z,36.40
2022-11-25T07:45:54.474Z,40.45
2022-11-25T07:48:34.840Z,37.65
2022-11-25T07:53:52.842Z,37.58
2022-11-25T07:56:19.497Z,47.42
2022-11-25T07:58:52.920Z,39.67
2022-11-25T08:01:19.880Z,39.42
2022-11-25T08:03:48.204Z,42.83
2022-11-25T08:06:23.906Z,44.17
2022-11-25T08:08:54.541Z,70.05
2022-11-25T08:11:32.921Z,55.83
2022-11-25T08:13:59.749Z,45.35
2022-11-25T08:16:28.185Z,113.53
2022-11-25T08:19:01.888Z,168.07
2022-11-25T08:21:35.831Z,76.93
2022-11-25T08:24:09.907Z,72.93
2022-11-25T08:26:37.666Z,147.13
2022-11-25T08:29:12.904Z,63.70
2022-11-25T08:31:39.632Z,40.05
2022-11-25T08:34:07.140Z,163.10
2022-11-25T08:36:48.780Z,124.03
2022-11-25T08:39:50.563Z,151.68
2022-11-25T08:42:22.858Z,163.43
2022-11-25T08:45:02.924Z,100.32
2022-11-25T08:47:35.848Z,73.60
2022-11-25T08:50:16.900Z,38.40
2022-11-25T08:52:43.541Z,45.75
2022-11-25T08:55:10.475Z,74.97
2022-11-25T08:57:43.905Z,41.22
2022-11-25T09:00:11.073Z,108.18
2022-11-25T09:02:43.931Z,108.25
2022-11-25T09:05:19.822Z,29.00
2022-11-25T09:07:46.485Z,48.30
2022-11-25T09:10:23.844Z,107.15
2022-11-25T09:12:50.483Z,42.60
2022-11-25T09:15:23.902Z,107.25
2022-11-25T09:17:58.678Z,36.03
2022-11-25T09:20:31.841Z,34.17
2022-11-25T09:23:02.633Z,78.03
2022-11-25T09:25:36.911Z,32.08
2022-11-25T09:28:04.312Z,40.90
2022-11-25T09:30:37.845Z,32.45
2022-11-25T09:33:04.449Z,40.70
2022-11-25T09:35:37.930Z,42.05
2022-11-25T09:38:04.598Z,50.72
2022-11-25T09:41:05.884Z,36.72
2022-11-25T09:44:35.836Z,61.08
2022-11-25T09:47:25.848Z,45.55
2022-11-25T09:50:09.856Z,63.42
2022-11-25T09:52:58.884Z,37.15
2022-11-25T09:55:36.919Z,30.63
2022-11-25T09:58:22.533Z,34.05
2022-11-25T10:00:57.865Z,30.55
2022-11-25T10:04:07.405Z,36.33
2022-11-25T10:06:55.373Z,28.48
2022-11-25T10:09:28.917Z,26.48
2022-11-25T10:12:06.935Z,28.95
2022-11-25T10:14:45.837Z,26.38
2022-11-25T10:17:29.827Z,30.98
2022-11-25T10:20:12.844Z,30.35
2022-11-25T10:22:51.918Z,33.35
2022-11-25T10:25:24.686Z,35.70
2022-11-25T10:28:07.847Z,35.60
2022-11-25T10:30:40.884Z,32.75
2022-11-25T10:33:25.939Z,31.52
2022-11-25T10:36:13.807Z,33.47
2022-11-25T10:38:54.947Z,39.67
2022-11-25T10:41:24.672Z,30.63
2022-11-25T10:43:51.488Z,32.58
2022-11-25T10:47:11.856Z,41.42
2022-11-25T10:49:44.840Z,32.72
2022-11-25T10:52:13.915Z,30.85
2022-11-25T10:54:41.467Z,33.58
2022-11-25T10:57:26.880Z,34.85
2022-11-25T10:59:58.647Z,34.03
2022-11-25T11:02:45.922Z,31.67
2022-11-25T11:05:12.513Z,29.27
2022-11-25T11:07:41.830Z,31.35
2022-11-25T11:10:26.821Z,33.72
2022-11-25T11:13:30.144Z,30.58
2022-11-25T11:16:02.855Z,30.67
2022-11-25T11:18:41.274Z,25.02
2022-11-25T11:21:28.873Z,27.70
2022-11-25T11:23:57.053Z,33.88
2022-11-25T11:26:27.088Z,27.75
2022-11-25T11:29:14.049Z,28.02
2022-11-25T11:31:54.852Z,30.27
2022-11-25T11:34:40.017Z,29.80
2022-11-25T11:37:36.839Z,29.80
2022-11-25T11:40:15.327Z,29.70
2022-11-25T11:43:09.829Z,26.30
2022-11-25T11:45:51.621Z,27.10
2022-11-25T11:48:36.897Z,40.42
2022-11-25T11:51:45.176Z,32.97
2022-11-25T11:54:35.108Z,28.63
2022-11-25T11:57:35.563Z,34.03
2022-11-25T12:03:11.723Z,30.85
2022-11-25T12:05:44.911Z,25.25
2022-11-25T12:08:22.926Z,30.25
2022-11-25T12:11:08.848Z,28.70
2022-11-25T12:13:47.049Z,31.90
2022-11-25T12:16:27.932Z,33.58
2022-11-25T12:19:14.214Z,34.17
2022-11-25T12:22:01.818Z,27.58
2022-11-25T12:25:00.838Z,29.85
2022-11-25T12:27:42.206Z,30.42
2022-11-25T12:30:47.851Z,34.63
2022-11-25T12:33:23.413Z,25.23
2022-11-25T12:36:14.890Z,31.30
2022-11-25T12:38:56.943Z,34.63
2022-11-25T12:41:48.857Z,34.00
2022-11-25T12:44:44.577Z,31.65
2022-11-25T12:47:18.880Z,43.75
2022-11-25T12:49:54.877Z,35.83
2022-11-25T12:52:42.829Z,35.55
2022-11-25T12:55:25.255Z,37.20
2022-11-25T12:58:27.909Z,39.85
2022-11-25T13:01:30.848Z,40.65
2022-11-25T13:04:22.844Z,45.15
2022-11-25T13:07:35.874Z,39.67
2022-11-25T13:10:11.663Z,41.67
2022-11-25T13:13:01.107Z,43.28
2022-11-25T13:15:46.807Z,40.83
2022-11-25T13:18:23.931Z,42.08
2022-11-25T13:20:55.369Z,39.10
2022-11-25T13:24:02.835Z,36.00
2022-11-25T13:26:37.659Z,44.38
2022-11-25T13:29:33.911Z,43.85
2022-11-25T13:32:02.516Z,42.22
2022-11-25T13:34:36.252Z,39.85
2022-11-25T13:37:33.544Z,32.30
2022-11-25T13:40:44.891Z,33.28
2022-11-25T13:43:22.362Z,55.47
2022-11-25T13:45:55.872Z,31.77
2022-11-25T13:48:32.018Z,49.50
2022-11-25T13:51:28.820Z,36.15
2022-11-25T13:54:02.717Z,44.58
2022-11-25T13:56:43.875Z,59.13
2022-11-25T13:59:10.457Z,55.97
2022-11-25T14:01:45.979Z,79.85
2022-11-25T14:04:16.247Z,47.50
2022-11-25T14:09:57.899Z,43.10
2022-11-25T14:12:48.612Z,48.15
2022-11-25T14:16:15.858Z,51.80
2022-11-25T14:19:50.118Z,54.25
2022-11-25T14:22:25.900Z,72.13
2022-11-25T14:25:09.870Z,90.60
2022-11-25T14:27:42.844Z,62.47
2022-11-25T14:30:16.824Z,77.30
2022-11-25T14:32:45.621Z,52.42
2022-11-25T14:35:33.829Z,79.80
2022-11-25T14:38:04.860Z,65.75
2022-11-25T14:40:54.177Z,40.92
2022-11-25T14:43:26.494Z,56.10
2022-11-25T14:46:24.007Z,38.72
2022-11-25T14:49:03.321Z,42.95
2022-11-25T14:51:45.849Z,40.67
2022-11-25T14:54:12.534Z,45.65
2022-11-25T14:56:46.880Z,34.80
2022-11-25T14:59:14.184Z,59.65
2022-11-25T15:02:00.902Z,39.70
2022-11-25T15:04:32.212Z,42.10
2022-11-25T15:07:09.018Z,37.90
2022-11-25T15:09:42.457Z,32.92
2022-11-25T15:12:22.854Z,37.35
2022-11-25T15:14:55.377Z,41.15
2022-11-25T15:17:37.826Z,38.00
2022-11-25T15:20:15.170Z,50.40
2022-11-25T15:22:57.910Z,40.10
2022-11-25T15:25:24.541Z,32.35
2022-11-25T15:27:59.821Z,31.95
2022-11-25T15:30:29.233Z,29.65
2022-11-25T15:33:10.815Z,31.13
2022-11-25T15:35:37.422Z,30.10
2022-11-25T15:38:40.838Z,26.33
2022-11-25T15:41:27.949Z,42.70
2022-11-25T15:44:02.819Z,40.20
2022-11-25T15:46:32.372Z,31.50
2022-11-25T15:49:13.828Z,32.30
2022-11-25T15:51:51.217Z,26.63
2022-11-25T15:54:32.824Z,39.45
2022-11-25T15:57:13.840Z,43.10
2022-11-25T16:00:11.896Z,35.17
2022-11-25T16:02:47.815Z,30.58
2022-11-25T16:05:20.897Z,28.83
2022-11-25T16:07:56.879Z,30.95
2022-11-25T16:10:31.906Z,43.17
2022-11-25T16:13:29.819Z,40.47
2022-11-25T16:16:18.871Z,28.48
2022-11-25T16:19:12.935Z,34.03
2022-11-25T16:21:51.723Z,31.65
2022-11-25T16:24:43.897Z,34.90
2022-11-25T16:27:24.114Z,26.98
2022-11-25T16:30:26.863Z,29.95
2022-11-25T16:32:53.450Z,32.00
2022-11-25T16:35:34.838Z,37.03
2022-11-25T16:38:01.440Z,30.88
2022-11-25T16:40:34.895Z,29.27
2022-11-25T16:43:01.566Z,28.92
2022-11-25T16:45:34.928Z,36.88
2022-11-25T16:48:29.811Z,36.03
2022-11-25T16:51:03.826Z,29.55
2022-11-25T16:53:30.426Z,30.80
2022-11-25T16:55:57.055Z,37.92
2022-11-25T16:58:30.879Z,38.85
2022-11-25T17:00:57.832Z,37.33
2022-11-25T17:03:26.481Z,29.75
2022-11-25T17:06:06.845Z,35.40
2022-11-25T17:08:39.846Z,34.33
2022-11-25T17:11:08.924Z,33.97
2022-11-25T17:13:48.904Z,34.47
2022-11-25T17:16:18.443Z,35.70
2022-11-25T17:18:51.988Z,39.13
2022-11-25T17:21:18.746Z,34.95
2022-11-25T17:23:55.263Z,39.55
2022-11-25T17:26:46.829Z,46.50
2022-11-25T17:29:22.891Z,44.75
2022-11-25T17:31:58.505Z,50.53
2022-11-25T17:34:36.334Z,48.20
2022-11-25T17:37:19.847Z,43.17
2022-11-25T17:39:46.604Z,46.60
2022-11-25T17:42:15.811Z,51.83
2022-11-25T17:44:54.099Z,48.27
2022-11-25T17:47:21.011Z,48.28
2022-11-25T17:50:00.883Z,50.13
2022-11-25T17:52:34.218Z,49.15
2022-11-25T17:55:00.809Z,49.75
2022-11-25T17:57:35.829Z,43.50
2022-11-25T18:00:02.722Z,48.20
2022-11-25T18:02:35.939Z,43.97
2022-11-25T18:05:09.829Z,46.20
2022-11-25T18:07:36.536Z,46.97
2022-11-25T18:10:09.851Z,40.20
2022-11-25T18:12:43.806Z,38.85
2022-11-25T18:15:17.442Z,40.40
2022-11-25T18:17:50.843Z,40.03
2022-11-25T18:20:25.248Z,41.10
2022-11-25T18:22:59.965Z,37.78
2022-11-25T18:25:30.764Z,36.38
2022-11-25T18:28:06.863Z,38.47
2022-11-25T18:30:35.927Z,34.95
2022-11-25T18:33:05.528Z,37.38
2022-11-25T18:35:40.897Z,37.92
2022-11-25T18:38:07.891Z,37.50
2022-11-25T18:40:39.705Z,37.20
2022-11-25T18:43:17.826Z,38.03
2022-11-25T18:45:51.954Z,37.58
2022-11-25T18:48:27.960Z,40.47
2022-11-25T18:51:07.818Z,36.65
2022-11-25T18:53:34.397Z,35.55
2022-11-25T18:56:07.837Z,48.00
2022-11-25T18:58:40.814Z,48.08
2022-11-25T19:01:20.908Z,43.28
2022-11-25T19:03:47.557Z,41.08
2022-11-25T19:06:15.324Z,39.28
2022-11-25T19:08:48.826Z,35.83
2022-11-25T19:11:41.843Z,36.83
2022-11-25T19:14:21.730Z,35.50
2022-11-25T19:16:54.907Z,38.22
2022-11-25T19:19:21.643Z,39.42
2022-11-25T19:21:54.836Z,40.78
2022-11-25T19:24:21.632Z,40.17
2022-11-25T19:26:56.839Z,45.97
2022-11-25T19:29:42.469Z,38.55
2022-11-25T19:32:28.856Z,38.28
2022-11-25T19:34:59.465Z,39.45
2022-11-25T19:37:27.350Z,39.22
2022-11-25T19:40:00.844Z,43.45
2022-11-25T19:42:31.570Z,48.17
2022-11-25T19:44:58.242Z,47.40
2022-11-25T19:47:32.824Z,45.53
2022-11-25T19:50:07.866Z,46.08
2022-11-25T19:52:47.886Z,43.65
2022-11-25T19:55:17.905Z,45.50
2022-11-25T19:57:44.713Z,43.00
2022-11-25T20:00:18.887Z,41.60
2022-11-25T20:02:52.967Z,41.88
2022-11-25T20:05:25.612Z,42.08
2022-11-25T20:07:52.430Z,45.78
2022-11-25T20:10:29.828Z,38.50
2022-11-25T20:12:57.254Z,40.45
2022-11-25T20:15:31.956Z,37.53
2022-11-25T20:18:01.074Z,42.15
2022-11-25T20:20:38.851Z,43.88
2022-11-25T20:23:18.813Z,44.90
2022-11-25T20:25:54.907Z,36.85
2022-11-25T20:28:27.414Z,36.20
2022-11-25T20:30:54.726Z,33.83
2022-11-25T20:33:27.842Z,38.03
2022-11-25T20:36:12.880Z,36.92
2022-11-25T20:38:46.384Z,38.22
2022-11-25T20:41:26.087Z,41.67
2022-11-25T20:43:55.243Z,39.63
2022-11-25T20:46:30.920Z,38.00
2022-11-25T20:49:14.972Z,35.60
2022-11-25T20:51:48.308Z,36.88
2022-11-25T20:54:22.008Z,36.03
2022-11-25T20:56:54.849Z,31.33
2022-11-25T20:59:23.437Z,37.80
2022-11-25T21:01:51.212Z,33.00
2022-11-25T21:04:24.877Z,31.23
2022-11-25T21:06:51.888Z,33.75
2022-11-25T21:09:21.691Z,36.95
2022-11-25T21:11:55.956Z,32.28
2022-11-25T21:14:22.546Z,37.78
2022-11-25T21:16:49.222Z,35.25
2022-11-25T21:19:22.883Z,35.60
2022-11-25T21:21:56.828Z,36.00
2022-11-25T21:24:38.117Z,33.13
2022-11-25T21:27:15.079Z,34.35
2022-11-25T21:29:49.894Z,33.00
2022-11-25T21:32:21.170Z,34.80
2022-11-25T21:34:54.899Z,30.35
2022-11-25T21:37:30.908Z,31.13
2022-11-25T21:40:05.870Z,35.15
2022-11-25T21:42:32.994Z,31.88
2022-11-25T21:45:05.867Z,35.80
2022-11-25T21:47:32.463Z,34.88
2022-11-25T21:50:35.849Z,35.42
2022-11-25T21:53:08.890Z,33.40
2022-11-25T21:55:35.616Z,28.23
2022-11-25T21:58:02.297Z,33.67
2022-11-25T22:00:35.971Z,32.50
2022-11-25T22:03:02.768Z,34.88
2022-11-25T22:05:30.538Z,29.83
2022-11-25T22:08:03.914Z,28.95
2022-11-25T22:10:30.643Z,36.45
2022-11-25T22:13:03.876Z,34.15
2022-11-25T22:15:37.907Z,26.55
2022-11-25T22:18:04.736Z,28.27
2022-11-25T22:20:33.815Z,36.78
2022-11-25T22:23:07.862Z,37.50
2022-11-25T22:25:34.468Z,32.72
2022-11-25T22:28:07.904Z,32.08
2022-11-25T22:30:34.559Z,37.83
2022-11-25T22:33:03.163Z,31.55
2022-11-25T22:35:36.817Z,34.03
2022-11-25T22:38:12.888Z,29.40
2022-11-25T22:40:47.859Z,28.15
2022-11-25T22:43:18.888Z,29.80
2022-11-25T22:45:46.501Z,32.67
2022-11-25T22:48:25.878Z,27.35
2022-11-25T22:51:05.879Z,32.25
2022-11-25T22:53:32.664Z,26.17
2022-11-25T22:56:05.880Z,27.17
2022-11-25T22:58:32.559Z,29.38
2022-11-25T23:00:59.288Z,27.50
2022-11-25T23:03:35.876Z,29.95
2022-11-25T23:06:09.792Z,29.17
2022-11-25T23:08:36.721Z,25.50
2022-11-25T23:11:10.852Z,30.52
2022-11-25T23:13:37.447Z,32.28
2022-11-25T23:16:11.933Z,32.78
2022-11-25T23:18:42.776Z,32.15
2022-11-25T23:21:29.827Z,32.47
2022-11-25T23:24:03.820Z,30.70
2022-11-25T23:26:35.045Z,31.55
2022-11-25T23:29:08.970Z,31.95
2022-11-25T23:31:43.944Z,28.27
2022-11-25T23:34:12.630Z,32.33
2022-11-25T23:36:54.817Z,31.27
2022-11-25T23:39:29.841Z,30.13
2022-11-25T23:42:02.867Z,33.83
2022-11-25T23:44:31.632Z,27.05
2022-11-25T23:47:08.896Z,29.35
2022-11-25T23:49:45.821Z,24.55
2022-11-25T23:52:29.915Z,25.00
2022-11-25T23:55:02.848Z,28.08
2022-11-25T23:57:39.804Z,23.95
